createdAt,value
2022-11-16T00:01:24.296Z,9.42
2022-11-16T00:03:52.538Z,9.41
2022-11-16T00:06:20.061Z,9.40
2022-11-16T00:09:09.883Z,9.40
2022-11-16T00:11:38.279Z,9.41
2022-11-16T00:14:06.103Z,9.43
2022-11-16T00:16:33.176Z,9.45
2022-11-16T00:19:03.368Z,9.43
2022-11-16T00:21:31.191Z,9.43
2022-11-16T00:23:58.047Z,9.42
2022-11-16T00:26:24.952Z,9.42
2022-11-16T00:28:54.894Z,9.43
2022-11-16T00:31:22.224Z,9.45
2022-11-16T00:33:49.613Z,9.42
2022-11-16T00:36:16.617Z,9.41
2022-11-16T00:38:43.873Z,9.41
2022-11-16T00:41:10.508Z,9.41
2022-11-16T00:43:37.711Z,9.39
2022-11-16T00:46:04.757Z,9.39
2022-11-16T00:48:31.687Z,9.38
2022-11-16T00:50:58.478Z,9.37
2022-11-16T00:53:25.085Z,9.36
2022-11-16T00:55:51.716Z,9.35
2022-11-16T00:58:18.276Z,9.34
2022-11-16T01:00:44.877Z,9.34
2022-11-16T01:03:11.832Z,9.35
2022-11-16T01:05:38.835Z,9.33
2022-11-16T01:08:06.231Z,9.31
2022-11-16T01:10:32.860Z,9.30
2022-11-16T01:12:59.612Z,9.27
2022-11-16T01:15:27.648Z,9.27
2022-11-16T01:17:56.950Z,9.26
2022-11-16T01:20:27.537Z,9.25
2022-11-16T01:22:54.822Z,9.25
2022-11-16T01:25:21.592Z,9.23
2022-11-16T01:27:48.309Z,9.22
2022-11-16T01:30:16.557Z,9.19
2022-11-16T01:32:43.489Z,9.12
2022-11-16T01:35:14.463Z,9.07
2022-11-16T01:37:40.974Z,9.01
2022-11-16T01:40:08.126Z,8.96
2022-11-16T01:42:34.778Z,8.89
2022-11-16T01:45:16.844Z,8.86
2022-11-16T01:47:43.799Z,8.82
2022-11-16T01:50:14.631Z,8.76
2022-11-16T01:52:52.551Z,8.71
2022-11-16T01:55:19.686Z,8.66
2022-11-16T01:57:48.028Z,8.62
2022-11-16T02:00:15.613Z,8.61
2022-11-16T02:02:42.514Z,8.57
2022-11-16T02:05:11.689Z,8.52
2022-11-16T02:08:11.023Z,8.52
2022-11-16T02:10:37.559Z,8.49
2022-11-16T02:13:27.273Z,8.46
2022-11-16T02:16:32.126Z,8.47
2022-11-16T02:19:33.754Z,8.49
2022-11-16T02:22:38.485Z,8.49
2022-11-16T02:25:11.148Z,8.49
2022-11-16T02:27:52.219Z,8.48
2022-11-16T02:30:21.137Z,8.53
2022-11-16T02:32:59.057Z,8.50
2022-11-16T02:35:33.820Z,8.51
2022-11-16T02:38:07.948Z,8.49
2022-11-16T02:40:37.697Z,8.45
2022-11-16T02:43:09.821Z,8.39
2022-11-16T02:45:41.482Z,8.36
2022-11-16T02:48:17.604Z,8.31
2022-11-16T02:50:45.164Z,8.29
2022-11-16T02:53:11.669Z,8.26
2022-11-16T02:55:38.285Z,8.28
2022-11-16T02:58:11.112Z,8.22
2022-11-16T03:00:52.564Z,8.21
2022-11-16T03:03:37.665Z,8.18
2022-11-16T03:06:04.332Z,8.19
2022-11-16T03:08:36.285Z,8.18
2022-11-16T03:11:27.686Z,8.16
2022-11-16T03:14:17.787Z,8.13
2022-11-16T03:16:50.876Z,8.08
2022-11-16T03:19:23.774Z,8.06
2022-11-16T03:21:57.904Z,8.01
2022-11-16T03:24:25.101Z,7.98
2022-11-16T03:27:11.484Z,7.95
2022-11-16T03:29:49.228Z,7.90
2022-11-16T03:32:21.935Z,7.82
2022-11-16T03:35:01.765Z,7.78
2022-11-16T03:37:30.157Z,7.75
2022-11-16T03:39:58.820Z,7.74
2022-11-16T03:42:27.524Z,7.71
2022-11-16T03:44:55.540Z,7.71
2022-11-16T03:47:22.036Z,7.70
2022-11-16T03:49:48.572Z,7.71
2022-11-16T03:52:17.364Z,7.71
2022-11-16T03:54:43.871Z,7.71
2022-11-16T03:57:15.555Z,7.71
2022-11-16T03:59:43.417Z,7.72
2022-11-16T04:02:10.719Z,7.73
2022-11-16T04:04:56.207Z,7.75
2022-11-16T04:07:40.960Z,7.74
2022-11-16T04:10:26.426Z,7.73
2022-11-16T04:13:11.780Z,7.79
2022-11-16T04:15:56.680Z,7.77
2022-11-16T04:18:41.597Z,7.78
2022-11-16T04:21:37.577Z,7.78
2022-11-16T04:24:13.452Z,7.79
2022-11-16T04:27:02.750Z,7.80
2022-11-16T04:29:29.787Z,7.80
2022-11-16T04:32:15.445Z,7.80
2022-11-16T04:35:00.314Z,7.81
2022-11-16T04:37:45.239Z,7.84
2022-11-16T04:40:12.028Z,7.83
2022-11-16T04:42:38.542Z,7.84
2022-11-16T04:45:24.075Z,7.86
2022-11-16T04:47:51.292Z,7.85
2022-11-16T04:50:19.080Z,7.86
2022-11-16T04:52:46.015Z,7.87
2022-11-16T04:55:12.992Z,7.90
2022-11-16T04:57:39.544Z,7.88
2022-11-16T05:00:07.424Z,7.87
2022-11-16T05:02:34.165Z,7.87
2022-11-16T05:05:00.673Z,7.86
2022-11-16T05:07:27.354Z,7.85
2022-11-16T05:09:53.901Z,7.82
2022-11-16T05:12:25.904Z,7.77
2022-11-16T05:14:53.483Z,7.76
2022-11-16T05:17:19.986Z,7.73
2022-11-16T05:20:05.010Z,7.73
2022-11-16T05:22:32.078Z,7.69
2022-11-16T05:24:58.956Z,7.64
2022-11-16T05:27:27.024Z,7.65
2022-11-16T05:29:54.972Z,7.61
2022-11-16T05:32:23.016Z,7.54
2022-11-16T05:34:49.794Z,7.54
2022-11-16T05:37:17.012Z,7.52
2022-11-16T05:39:43.586Z,7.50
2022-11-16T05:42:10.392Z,7.48
2022-11-16T05:44:37.016Z,7.46
2022-11-16T05:47:03.713Z,7.43
2022-11-16T05:49:30.233Z,7.40
2022-11-16T05:51:56.729Z,7.37
2022-11-16T05:54:25.929Z,7.31
2022-11-16T05:56:54.168Z,7.32
2022-11-16T05:59:22.588Z,7.27
2022-11-16T06:01:49.526Z,7.27
2022-11-16T06:04:16.299Z,7.24
2022-11-16T06:06:43.153Z,7.22
2022-11-16T06:09:12.095Z,7.18
2022-11-16T06:11:38.840Z,7.18
2022-11-16T06:14:06.031Z,7.15
2022-11-16T06:16:32.673Z,7.13
2022-11-16T06:18:59.790Z,7.11
2022-11-16T06:21:26.381Z,7.10
2022-11-16T06:23:52.844Z,7.06
2022-11-16T06:26:19.349Z,7.02
2022-11-16T06:28:45.892Z,7.00
2022-11-16T06:31:12.430Z,6.99
2022-11-16T06:33:38.917Z,6.96
2022-11-16T06:36:05.713Z,6.94
2022-11-16T06:38:32.629Z,6.92
2022-11-16T06:40:59.749Z,6.89
2022-11-16T06:43:26.659Z,6.88
2022-11-16T06:45:55.963Z,6.86
2022-11-16T06:48:22.690Z,6.86
2022-11-16T06:50:50.768Z,6.86
2022-11-16T06:53:17.840Z,6.84
2022-11-16T06:55:44.547Z,6.84
2022-11-16T06:58:11.095Z,6.83
2022-11-16T07:00:37.612Z,6.83
2022-11-16T07:03:04.285Z,6.82
2022-11-16T07:05:31.628Z,6.79
2022-11-16T07:07:58.503Z,6.77
2022-11-16T07:10:25.387Z,6.73
2022-11-16T07:12:51.941Z,6.71
2022-11-16T07:15:19.388Z,6.68
2022-11-16T07:17:46.068Z,6.63
2022-11-16T07:20:12.761Z,6.63
2022-11-16T07:22:39.243Z,6.59
2022-11-16T07:25:06.415Z,6.52
2022-11-16T07:27:32.872Z,6.50
2022-11-16T07:30:00.749Z,6.51
2022-11-16T07:32:28.876Z,6.52
2022-11-16T07:34:58.027Z,6.52
2022-11-16T07:37:25.640Z,6.52
2022-11-16T07:39:52.152Z,6.55
2022-11-16T07:42:18.633Z,6.57
2022-11-16T07:44:45.230Z,6.61
2022-11-16T07:47:11.751Z,6.63
2022-11-16T07:49:38.295Z,6.65
2022-11-16T07:52:04.830Z,6.69
2022-11-16T07:54:33.602Z,6.73
2022-11-16T07:57:00.137Z,6.73
2022-11-16T07:59:27.549Z,6.76
2022-11-16T08:01:55.794Z,6.77
2022-11-16T08:04:22.400Z,6.78
2022-11-16T08:06:51.788Z,6.81
2022-11-16T08:09:18.525Z,6.84
2022-11-16T08:11:45.376Z,6.86
2022-11-16T08:14:12.663Z,6.90
2022-11-16T08:16:39.182Z,6.91
2022-11-16T08:19:05.769Z,6.93
2022-11-16T08:21:32.242Z,6.94
2022-11-16T08:23:59.158Z,6.96
2022-11-16T08:26:27.090Z,7.00
2022-11-16T08:28:54.140Z,7.03
2022-11-16T08:31:24.036Z,7.00
2022-11-16T08:33:51.867Z,7.06
2022-11-16T08:36:18.927Z,7.09
2022-11-16T08:38:46.431Z,7.13
2022-11-16T08:41:13.602Z,7.15
2022-11-16T08:43:40.806Z,7.18
2022-11-16T08:46:08.899Z,7.19
2022-11-16T08:48:36.472Z,7.22
2022-11-16T08:51:20.132Z,7.24
2022-11-16T08:53:49.089Z,7.27
2022-11-16T08:56:17.948Z,7.30
2022-11-16T08:58:47.075Z,7.33
2022-11-16T09:01:19.352Z,7.34
2022-11-16T09:03:46.531Z,7.38
2022-11-16T09:06:14.166Z,7.41
2022-11-16T09:08:43.095Z,7.43
2022-11-16T09:11:13.663Z,7.45
2022-11-16T09:13:40.499Z,7.48
2022-11-16T09:16:07.465Z,7.52
2022-11-16T09:18:35.407Z,7.56
2022-11-16T09:21:02.091Z,7.60
2022-11-16T09:23:28.899Z,7.67
2022-11-16T09:25:55.448Z,7.70
2022-11-16T09:28:22.448Z,7.73
2022-11-16T09:30:51.165Z,7.75
2022-11-16T09:33:17.830Z,7.78
2022-11-16T09:35:44.649Z,7.80
2022-11-16T09:38:14.851Z,7.80
2022-11-16T09:40:47.427Z,7.83
2022-11-16T09:43:58.260Z,7.86
2022-11-16T09:46:29.214Z,7.91
2022-11-16T09:48:59.970Z,7.98
2022-11-16T09:51:29.765Z,8.01
2022-11-16T09:54:06.636Z,8.05
2022-11-16T09:56:37.345Z,8.09
2022-11-16T09:59:15.064Z,8.16
2022-11-16T10:01:58.569Z,8.20
2022-11-16T10:05:03.139Z,8.25
2022-11-16T10:07:43.529Z,8.27
2022-11-16T10:10:18.237Z,8.28
2022-11-16T10:12:52.093Z,8.33
2022-11-16T10:15:23.636Z,8.33
2022-11-16T10:18:47.128Z,8.35
2022-11-16T10:21:19.459Z,8.38
2022-11-16T10:24:04.044Z,8.44
2022-11-16T10:26:45.138Z,8.48
2022-11-16T10:29:22.924Z,8.50
2022-11-16T10:32:20.821Z,8.56
2022-11-16T10:34:52.245Z,8.60
2022-11-16T10:37:19.621Z,8.62
2022-11-16T10:39:49.685Z,8.63
2022-11-16T10:42:39.301Z,8.68
2022-11-16T10:45:21.685Z,8.69
2022-11-16T10:47:55.628Z,8.73
2022-11-16T10:50:47.901Z,8.77
2022-11-16T10:53:25.230Z,8.80
2022-11-16T10:56:19.666Z,8.86
2022-11-16T10:58:53.444Z,8.90
2022-11-16T11:01:50.073Z,8.95
2022-11-16T11:04:27.493Z,9.01
2022-11-16T11:07:24.623Z,9.03
2022-11-16T11:09:54.893Z,9.08
2022-11-16T11:12:38.683Z,9.09
2022-11-16T11:15:11.184Z,9.13
2022-11-16T11:17:44.787Z,9.17
2022-11-16T11:20:17.651Z,9.22
2022-11-16T11:22:55.238Z,9.26
2022-11-16T11:25:41.250Z,9.30
2022-11-16T11:28:28.600Z,9.35
2022-11-16T11:31:00.277Z,9.40
2022-11-16T11:33:30.157Z,9.47
2022-11-16T11:36:21.197Z,9.56
2022-11-16T11:39:00.202Z,9.61
2022-11-16T11:41:32.808Z,9.67
2022-11-16T11:44:14.811Z,9.75
2022-11-16T11:47:35.296Z,9.76
2022-11-16T11:49:40.231Z,9.81
2022-11-16T11:52:17.314Z,9.84
2022-11-16T11:54:47.784Z,9.86
2022-11-16T11:57:22.077Z,9.87
2022-11-16T11:59:52.427Z,9.87
2022-11-16T12:02:30.864Z,9.88
2022-11-16T12:05:12.630Z,9.89
2022-11-16T12:07:56.298Z,9.89
2022-11-16T12:10:41.907Z,9.90
2022-11-16T12:13:20.509Z,9.90
2022-11-16T12:16:14.032Z,9.91
2022-11-16T12:19:01.588Z,9.91
2022-11-16T12:22:02.231Z,9.93
2022-11-16T12:24:37.765Z,9.93
2022-11-16T12:27:07.152Z,9.95
2022-11-16T12:29:50.625Z,9.96
2022-11-16T12:32:34.954Z,9.96
2022-11-16T12:35:04.448Z,10.00
2022-11-16T12:37:49.344Z,10.01
2022-11-16T12:40:34.793Z,10.06
2022-11-16T12:43:56.116Z,10.12
2022-11-16T12:46:37.545Z,10.16
2022-11-16T12:49:45.232Z,10.23
2022-11-16T12:52:36.262Z,10.29
2022-11-16T12:55:26.942Z,10.35
2022-11-16T12:58:00.011Z,10.40
2022-11-16T13:00:28.778Z,10.43
2022-11-16T13:03:00.645Z,10.47
2022-11-16T13:05:42.040Z,10.50
2022-11-16T13:08:21.245Z,10.51
2022-11-16T13:10:50.742Z,10.54
2022-11-16T13:13:36.417Z,10.57
2022-11-16T13:16:17.509Z,10.62
2022-11-16T13:18:44.526Z,10.68
2022-11-16T13:21:19.863Z,10.73
2022-11-16T13:24:20.305Z,10.80
2022-11-16T13:27:11.339Z,10.92
2022-11-16T13:29:45.704Z,11.06
2022-11-16T13:32:19.792Z,11.17
2022-11-16T13:34:47.123Z,11.21
2022-11-16T13:37:38.711Z,11.23
2022-11-16T13:40:05.183Z,11.22
2022-11-16T13:42:34.279Z,11.20
2022-11-16T13:45:21.648Z,11.15
2022-11-16T13:47:51.687Z,11.11
2022-11-16T13:50:21.682Z,11.07
2022-11-16T13:55:48.122Z,11.02
2022-11-16T13:58:21.792Z,11.00
2022-11-16T14:01:04.466Z,10.98
2022-11-16T14:03:38.668Z,11.00
2022-11-16T14:06:26.398Z,11.01
2022-11-16T14:08:55.004Z,11.02
2022-11-16T14:11:36.715Z,11.02
2022-11-16T14:14:05.854Z,11.03
2022-11-16T14:16:47.726Z,10.96
2022-11-16T14:19:49.204Z,10.91
2022-11-16T14:22:45.617Z,10.81
2022-11-16T14:25:24.179Z,10.77
2022-11-16T14:28:16.086Z,10.75
2022-11-16T14:31:07.943Z,10.73
2022-11-16T14:33:37.253Z,10.67
2022-11-16T14:36:07.499Z,10.59
2022-11-16T14:38:40.680Z,10.51
2022-11-16T14:41:22.780Z,10.40
2022-11-16T14:43:53.722Z,10.33
2022-11-16T14:46:26.595Z,10.27
2022-11-16T14:48:56.804Z,10.23
2022-11-16T14:51:30.026Z,10.21
2022-11-16T14:54:02.640Z,10.17
2022-11-16T14:56:29.220Z,10.15
2022-11-16T14:59:00.469Z,10.07
2022-11-16T15:01:39.617Z,10.05
2022-11-16T15:04:11.144Z,10.03
2022-11-16T15:06:53.815Z,10.01
2022-11-16T15:09:39.317Z,10.01
2022-11-16T15:12:31.677Z,10.05
2022-11-16T15:15:03.816Z,10.06
2022-11-16T15:17:33.428Z,10.10
2022-11-16T15:20:21.727Z,10.06
2022-11-16T15:22:51.829Z,10.03
2022-11-16T15:25:24.305Z,10.03
2022-11-16T15:27:51.194Z,10.03
2022-11-16T15:30:23.777Z,10.01
2022-11-16T15:32:52.052Z,10.01
2022-11-16T15:35:29.331Z,10.00
2022-11-16T15:38:26.152Z,9.98
2022-11-16T15:40:59.122Z,9.95
2022-11-16T15:43:30.063Z,9.95
2022-11-16T15:45:58.431Z,9.95
2022-11-16T15:48:27.021Z,9.96
2022-11-16T15:51:16.496Z,9.97
2022-11-16T15:53:49.825Z,9.94
2022-11-16T15:56:25.295Z,9.93
2022-11-16T15:58:56.684Z,9.94
2022-11-16T16:01:24.686Z,9.93
2022-11-16T16:03:51.213Z,9.92
2022-11-16T16:06:54.437Z,9.91
2022-11-16T16:09:25.628Z,9.90
2022-11-16T16:11:57.614Z,9.89
2022-11-16T16:14:29.932Z,9.89
2022-11-16T16:17:00.877Z,9.89
2022-11-16T16:19:35.705Z,9.88
2022-11-16T16:22:03.744Z,9.87
2022-11-16T16:24:41.054Z,9.86
2022-11-16T16:27:16.093Z,9.83
2022-11-16T16:29:43.297Z,9.83
2022-11-16T16:32:34.103Z,9.81
2022-11-16T16:35:07.240Z,9.80
2022-11-16T16:37:36.059Z,9.79
2022-11-16T16:40:02.975Z,9.77
2022-11-16T16:42:29.572Z,9.77
2022-11-16T16:44:59.265Z,9.75
2022-11-16T16:47:25.876Z,9.74
2022-11-16T16:49:52.463Z,9.72
2022-11-16T16:52:19.057Z,9.72
2022-11-16T16:54:45.909Z,9.69
2022-11-16T16:57:15.123Z,9.70
2022-11-16T16:59:42.540Z,9.69
2022-11-16T17:02:11.764Z,9.66
2022-11-16T17:04:38.282Z,9.66
2022-11-16T17:07:05.607Z,9.65
2022-11-16T17:09:33.338Z,9.64
2022-11-16T17:11:59.834Z,9.62
2022-11-16T17:14:26.457Z,9.62
2022-11-16T17:16:52.952Z,9.63
2022-11-16T17:19:19.999Z,9.63
2022-11-16T17:21:46.650Z,9.63
2022-11-16T17:24:13.099Z,9.63
2022-11-16T17:26:40.882Z,9.63
2022-11-16T17:29:07.456Z,9.64
2022-11-16T17:31:33.974Z,9.63
2022-11-16T17:34:00.627Z,9.62
2022-11-16T17:36:27.190Z,9.64
2022-11-16T17:38:53.727Z,9.62
2022-11-16T17:41:22.374Z,9.61
2022-11-16T17:43:52.920Z,9.58
2022-11-16T17:46:21.402Z,9.55
2022-11-16T17:48:48.926Z,9.56
2022-11-16T17:51:18.083Z,9.56
2022-11-16T17:53:44.904Z,9.55
2022-11-16T17:56:14.260Z,9.51
2022-11-16T17:58:41.253Z,9.53
2022-11-16T18:01:08.218Z,9.55
2022-11-16T18:03:38.510Z,9.54
2022-11-16T18:06:07.058Z,9.53
2022-11-16T18:08:34.645Z,9.54
2022-11-16T18:11:10.450Z,9.52
2022-11-16T18:13:37.367Z,9.52
2022-11-16T18:16:10.736Z,9.52
2022-11-16T18:18:38.488Z,9.50
2022-11-16T18:21:06.157Z,9.49
2022-11-16T18:23:34.197Z,9.48
2022-11-16T18:26:03.098Z,9.48
2022-11-16T18:28:30.257Z,9.45
2022-11-16T18:31:09.536Z,9.43
2022-11-16T18:33:37.924Z,9.42
2022-11-16T18:36:05.883Z,9.42
2022-11-16T18:38:32.705Z,9.44
2022-11-16T18:41:11.089Z,9.44
2022-11-16T18:43:59.133Z,9.44
2022-11-16T18:46:28.306Z,9.44
2022-11-16T18:48:55.839Z,9.46
2022-11-16T18:51:29.511Z,9.46
2022-11-16T18:53:56.932Z,9.47
2022-11-16T18:56:24.157Z,9.49
2022-11-16T18:58:54.663Z,9.49
2022-11-16T19:01:24.212Z,9.49
2022-11-16T19:03:51.919Z,9.50
2022-11-16T19:06:19.083Z,9.50
2022-11-16T19:08:52.173Z,9.50
2022-11-16T19:11:22.627Z,9.51
2022-11-16T19:13:56.342Z,9.51
2022-11-16T19:16:23.498Z,9.50
2022-11-16T19:18:50.103Z,9.50
2022-11-16T19:21:18.525Z,9.50
2022-11-16T19:23:47.751Z,9.51
2022-11-16T19:26:16.075Z,9.50
2022-11-16T19:28:45.447Z,9.49
2022-11-16T19:31:16.375Z,9.50
2022-11-16T19:33:44.563Z,9.51
2022-11-16T19:36:16.520Z,9.51
2022-11-16T19:38:43.988Z,9.51
2022-11-16T19:41:12.824Z,9.51
2022-11-16T19:43:39.717Z,9.54
2022-11-16T19:46:11.556Z,9.54
2022-11-16T19:48:38.325Z,9.54
2022-11-16T19:51:10.839Z,9.53
2022-11-16T19:53:38.354Z,9.56
2022-11-16T19:56:06.875Z,9.55
2022-11-16T19:58:39.341Z,9.55
2022-11-16T20:01:20.645Z,9.56
2022-11-16T20:03:49.181Z,9.55
2022-11-16T20:06:20.649Z,9.56
2022-11-16T20:08:50.745Z,9.58
2022-11-16T20:11:27.930Z,9.58
2022-11-16T20:13:56.780Z,9.57
2022-11-16T20:16:25.337Z,9.57
2022-11-16T20:18:52.697Z,9.59
2022-11-16T20:21:26.961Z,9.58
2022-11-16T20:23:53.805Z,9.59
2022-11-16T20:26:21.653Z,9.59
2022-11-16T20:28:53.327Z,9.59
2022-11-16T20:31:22.223Z,9.58
2022-11-16T20:33:53.952Z,9.59
2022-11-16T20:36:22.748Z,9.60
2022-11-16T20:38:50.114Z,9.60
2022-11-16T20:41:19.466Z,9.59
2022-11-16T20:43:47.256Z,9.60
2022-11-16T20:46:15.742Z,9.60
2022-11-16T20:48:43.384Z,9.62
2022-11-16T20:51:12.692Z,9.62
2022-11-16T20:53:39.523Z,9.62
2022-11-16T20:56:07.728Z,9.61
2022-11-16T20:58:34.760Z,9.61
2022-11-16T21:01:06.423Z,9.62
2022-11-16T21:03:33.704Z,9.62
2022-11-16T21:06:01.182Z,9.62
2022-11-16T21:08:29.792Z,9.62
2022-11-16T21:10:56.555Z,9.63
2022-11-16T21:13:42.443Z,9.64
2022-11-16T21:16:11.904Z,9.65
2022-11-16T21:18:39.570Z,9.65
2022-11-16T21:21:12.441Z,9.64
2022-11-16T21:23:41.071Z,9.65
2022-11-16T21:26:11.501Z,9.63
2022-11-16T21:28:38.584Z,9.63
2022-11-16T21:31:08.020Z,9.64
2022-11-16T21:33:34.717Z,9.65
2022-11-16T21:36:21.495Z,9.64
2022-11-16T21:38:48.730Z,9.66
2022-11-16T21:41:16.652Z,9.65
2022-11-16T21:43:44.165Z,9.64
2022-11-16T21:46:19.047Z,9.65
2022-11-16T21:48:47.887Z,9.65
2022-11-16T21:51:17.055Z,9.64
2022-11-16T21:53:44.108Z,9.66
2022-11-16T21:56:19.643Z,9.66
2022-11-16T21:58:46.888Z,9.67
2022-11-16T22:01:16.013Z,9.67
2022-11-16T22:03:42.986Z,9.68
2022-11-16T22:06:32.147Z,9.70
2022-11-16T22:08:58.918Z,9.70
2022-11-16T22:11:25.576Z,9.69
2022-11-16T22:13:52.160Z,9.70
2022-11-16T22:16:20.259Z,9.71
2022-11-16T22:18:46.839Z,9.72
2022-11-16T22:21:13.725Z,9.74
2022-11-16T22:23:40.828Z,9.75
2022-11-16T22:26:10.486Z,9.75
2022-11-16T22:28:38.028Z,9.75
2022-11-16T22:31:07.242Z,9.73
2022-11-16T22:33:35.007Z,9.76
2022-11-16T22:36:02.192Z,9.77
2022-11-16T22:38:28.971Z,9.79
2022-11-16T22:40:56.467Z,9.77
2022-11-16T22:43:28.581Z,9.76
2022-11-16T22:46:02.939Z,9.80
2022-11-16T22:48:34.075Z,9.79
2022-11-16T22:51:22.810Z,9.78
2022-11-16T22:53:54.344Z,9.79
2022-11-16T22:56:21.284Z,9.78
2022-11-16T22:58:47.827Z,9.80
2022-11-16T23:01:14.384Z,9.79
2022-11-16T23:03:41.134Z,9.78
2022-11-16T23:06:07.992Z,9.80
2022-11-16T23:08:35.716Z,9.79
2022-11-16T23:11:22.929Z,9.80
2022-11-16T23:14:08.833Z,9.79
2022-11-16T23:16:35.805Z,9.80
2022-11-16T23:19:02.895Z,9.81
2022-11-16T23:21:47.687Z,9.81
2022-11-16T23:24:33.973Z,9.81
2022-11-16T23:27:22.362Z,9.82
2022-11-16T23:29:49.193Z,9.80
2022-11-16T23:32:15.795Z,9.82
2022-11-16T23:34:42.525Z,9.81
2022-11-16T23:37:09.129Z,9.81
2022-11-16T23:39:35.654Z,9.82
2022-11-16T23:42:20.455Z,9.83
2022-11-16T23:44:47.017Z,9.83
2022-11-16T23:47:13.686Z,9.83
2022-11-16T23:49:40.271Z,9.83
2022-11-16T23:52:07.304Z,9.83
2022-11-16T23:54:33.828Z,9.82
2022-11-16T23:57:00.395Z,9.84
2022-11-16T23:59:27.215Z,9.84
